createdAt,value
2022-08-17T00:00:07.063Z,19.00
2022-08-17T00:02:55.849Z,19.00
2022-08-17T00:05:23.319Z,19.00
2022-08-17T00:07:50.844Z,19.00
2022-08-17T00:10:18.395Z,19.00
2022-08-17T00:12:46.175Z,19.00
2022-08-17T00:15:14.223Z,19.10
2022-08-17T00:17:44.410Z,19.10
2022-08-17T00:20:12.273Z,19.10
2022-08-17T00:22:39.853Z,19.10
2022-08-17T00:25:09.713Z,19.10
2022-08-17T00:27:37.110Z,19.10
2022-08-17T00:30:06.130Z,19.20
2022-08-17T00:33:12.397Z,19.30
2022-08-17T00:35:39.597Z,19.40
2022-08-17T00:38:09.811Z,19.30
2022-08-17T00:40:44.403Z,19.30
2022-08-17T00:43:19.466Z,19.40
2022-08-17T00:45:47.327Z,19.40
2022-08-17T00:48:29.285Z,19.40
2022-08-17T00:51:05.413Z,19.40
2022-08-17T00:53:33.660Z,19.40
2022-08-17T00:56:02.789Z,19.40
2022-08-17T00:58:36.369Z,19.40
2022-08-17T01:01:05.735Z,19.40
2022-08-17T01:03:33.505Z,19.40
2022-08-17T01:06:02.239Z,19.30
2022-08-17T01:08:31.131Z,19.30
2022-08-17T01:11:02.223Z,19.30
2022-08-17T01:13:43.089Z,19.30
2022-08-17T01:16:10.973Z,19.30
2022-08-17T01:18:38.860Z,19.30
2022-08-17T01:21:13.961Z,19.20
2022-08-17T01:23:42.410Z,19.10
2022-08-17T01:26:09.815Z,19.10
2022-08-17T01:28:55.058Z,19.00
2022-08-17T01:31:24.758Z,19.00
2022-08-17T01:33:52.315Z,18.90
2022-08-17T01:36:20.929Z,18.90
2022-08-17T01:38:48.345Z,18.80
2022-08-17T01:41:16.352Z,18.80
2022-08-17T01:43:45.479Z,18.80
2022-08-17T01:46:15.529Z,18.80
2022-08-17T01:48:43.640Z,18.70
2022-08-17T01:51:11.002Z,18.70
2022-08-17T01:53:39.985Z,18.70
2022-08-17T01:56:12.422Z,18.70
2022-08-17T01:58:40.216Z,18.60
2022-08-17T02:01:10.131Z,18.60
2022-08-17T02:03:38.168Z,18.50
2022-08-17T02:06:05.950Z,18.50
2022-08-17T02:09:02.245Z,18.50
2022-08-17T02:11:33.250Z,18.50
2022-08-17T02:14:03.453Z,18.40
2022-08-17T02:16:37.786Z,18.40
2022-08-17T02:19:10.300Z,18.30
2022-08-17T02:21:38.438Z,18.40
2022-08-17T02:24:07.312Z,18.40
2022-08-17T02:26:34.825Z,18.30
2022-08-17T02:29:04.027Z,18.30
2022-08-17T02:31:31.470Z,18.20
2022-08-17T02:34:03.864Z,18.20
2022-08-17T02:36:34.002Z,18.20
2022-08-17T02:39:04.772Z,18.20
2022-08-17T02:41:32.181Z,18.10
2022-08-17T02:43:59.822Z,18.20
2022-08-17T02:46:27.161Z,18.20
2022-08-17T02:48:54.536Z,18.20
2022-08-17T02:51:21.975Z,18.20
2022-08-17T02:53:49.353Z,18.20
2022-08-17T02:56:16.735Z,18.20
2022-08-17T02:58:44.130Z,18.30
2022-08-17T03:01:12.717Z,18.30
2022-08-17T03:03:40.439Z,18.30
2022-08-17T03:06:08.083Z,18.30
2022-08-17T03:08:36.409Z,18.30
2022-08-17T03:11:03.905Z,18.30
2022-08-17T03:13:31.294Z,18.30
2022-08-17T03:15:59.157Z,18.30
2022-08-17T03:18:27.951Z,18.30
2022-08-17T03:20:56.208Z,18.20
2022-08-17T03:23:25.363Z,18.20
2022-08-17T03:25:53.958Z,18.10
2022-08-17T03:28:22.350Z,18.10
2022-08-17T03:30:51.176Z,18.00
2022-08-17T03:33:19.590Z,18.00
2022-08-17T03:35:47.042Z,18.00
2022-08-17T03:38:17.482Z,17.80
2022-08-17T03:40:58.156Z,18.00
2022-08-17T03:43:31.536Z,18.00
2022-08-17T03:46:28.248Z,17.90
2022-08-17T03:49:24.973Z,17.90
2022-08-17T03:52:11.824Z,17.80
2022-08-17T03:54:58.372Z,17.90
2022-08-17T03:57:26.165Z,17.80
2022-08-17T03:59:53.928Z,17.80
2022-08-17T04:02:24.130Z,17.80
2022-08-17T04:04:52.234Z,17.80
2022-08-17T04:07:20.978Z,17.80
2022-08-17T04:09:48.544Z,17.90
2022-08-17T04:12:17.120Z,17.90
2022-08-17T04:14:52.890Z,17.80
2022-08-17T04:17:26.376Z,17.80
2022-08-17T04:19:54.341Z,17.50
2022-08-17T04:22:31.432Z,17.70
2022-08-17T04:25:02.930Z,17.70
2022-08-17T04:27:30.241Z,17.70
2022-08-17T04:29:58.534Z,17.70
2022-08-17T04:33:04.098Z,17.70
2022-08-17T04:35:17.474Z,17.70
2022-08-17T04:37:45.200Z,17.70
2022-08-17T04:40:31.336Z,17.80
2022-08-17T04:43:05.472Z,17.80
2022-08-17T04:45:33.473Z,17.80
2022-08-17T04:48:01.175Z,17.80
2022-08-17T04:50:28.665Z,17.80
2022-08-17T04:52:59.822Z,17.80
2022-08-17T04:55:27.396Z,17.80
2022-08-17T04:57:54.833Z,17.80
2022-08-17T05:00:22.310Z,17.80
2022-08-17T05:02:50.935Z,17.70
2022-08-17T05:05:34.202Z,17.70
2022-08-17T05:08:02.779Z,17.70
2022-08-17T05:10:33.069Z,17.60
2022-08-17T05:13:12.059Z,17.60
2022-08-17T05:15:44.823Z,17.60
2022-08-17T05:18:12.939Z,17.60
2022-08-17T05:20:40.638Z,17.50
2022-08-17T05:23:09.525Z,17.50
2022-08-17T05:25:40.358Z,17.50
2022-08-17T05:28:08.230Z,17.70
2022-08-17T05:30:35.846Z,17.50
2022-08-17T05:33:12.025Z,17.50
2022-08-17T05:35:42.771Z,17.50
2022-08-17T05:38:10.678Z,17.60
2022-08-17T05:40:38.445Z,17.50
2022-08-17T05:43:05.871Z,17.60
2022-08-17T05:45:55.419Z,17.60
2022-08-17T05:48:21.415Z,18.40
2022-08-17T05:51:06.843Z,17.70
2022-08-17T05:53:37.243Z,17.70
2022-08-17T05:56:30.170Z,17.70
2022-08-17T05:59:05.143Z,17.80
2022-08-17T06:01:41.744Z,17.80
2022-08-17T06:04:18.310Z,17.90
2022-08-17T06:06:52.616Z,17.90
2022-08-17T06:09:33.644Z,18.00
2022-08-17T06:12:19.019Z,18.00
2022-08-17T06:14:48.497Z,18.10
2022-08-17T06:17:18.166Z,18.10
2022-08-17T06:19:54.050Z,18.20
2022-08-17T06:22:23.567Z,18.30
2022-08-17T06:24:54.377Z,18.40
2022-08-17T06:27:21.738Z,18.50
2022-08-17T06:29:53.308Z,18.60
2022-08-17T06:32:21.065Z,18.60
2022-08-17T06:34:48.556Z,18.60
2022-08-17T06:37:31.752Z,18.70
2022-08-17T06:40:14.554Z,18.80
2022-08-17T06:43:05.694Z,18.80
2022-08-17T06:45:36.717Z,18.80
2022-08-17T06:48:10.560Z,18.90
2022-08-17T06:50:40.697Z,19.00
2022-08-17T06:53:11.151Z,19.10
2022-08-17T06:55:50.694Z,19.20
2022-08-17T06:58:22.693Z,19.30
2022-08-17T07:00:56.619Z,19.40
2022-08-17T07:03:37.571Z,19.60
2022-08-17T07:06:11.357Z,19.70
2022-08-17T07:09:14.635Z,19.80
2022-08-17T07:11:50.993Z,19.90
2022-08-17T07:14:18.443Z,19.90
2022-08-17T07:16:48.177Z,20.00
2022-08-17T07:19:16.913Z,20.10
2022-08-17T07:21:50.086Z,20.10
2022-08-17T07:24:30.429Z,20.20
2022-08-17T07:27:21.418Z,20.20
2022-08-17T07:30:10.631Z,20.20
2022-08-17T07:32:47.296Z,20.20
2022-08-17T07:35:17.093Z,20.30
2022-08-17T07:37:55.791Z,20.30
2022-08-17T07:40:28.118Z,20.40
2022-08-17T07:43:05.166Z,20.40
2022-08-17T07:45:52.637Z,20.50
2022-08-17T07:48:21.504Z,20.50
2022-08-17T07:50:50.740Z,20.50
2022-08-17T07:53:19.546Z,20.50
2022-08-17T07:55:47.012Z,20.50
2022-08-17T07:58:18.503Z,20.60
2022-08-17T08:00:46.143Z,20.60
2022-08-17T08:03:16.581Z,20.60
2022-08-17T08:05:56.280Z,20.70
2022-08-17T08:08:23.671Z,20.70
2022-08-17T08:11:00.442Z,20.70
2022-08-17T08:13:30.322Z,20.70
2022-08-17T08:16:19.911Z,20.60
2022-08-17T08:18:54.218Z,20.60
2022-08-17T08:21:32.961Z,20.60
2022-08-17T08:24:03.502Z,20.60
2022-08-17T08:26:37.611Z,20.50
2022-08-17T08:29:10.567Z,20.60
2022-08-17T08:31:57.714Z,20.50
2022-08-17T08:34:59.056Z,20.60
2022-08-17T08:37:39.095Z,20.60
2022-08-17T08:40:15.831Z,20.60
2022-08-17T08:42:43.807Z,20.70
2022-08-17T08:45:30.533Z,20.80
2022-08-17T08:47:58.226Z,21.30
2022-08-17T08:50:37.956Z,21.10
2022-08-17T08:53:15.532Z,21.20
2022-08-17T08:55:53.636Z,21.40
2022-08-17T08:58:47.888Z,21.60
2022-08-17T09:01:42.722Z,21.70
2022-08-17T09:04:25.026Z,21.90
2022-08-17T09:07:02.421Z,22.00
2022-08-17T09:09:50.199Z,22.00
2022-08-17T09:12:48.113Z,22.10
2022-08-17T09:15:19.114Z,22.10
2022-08-17T09:18:14.626Z,22.20
2022-08-17T09:20:50.468Z,22.20
2022-08-17T09:23:32.486Z,22.30
2022-08-17T09:26:24.426Z,22.40
2022-08-17T09:28:53.152Z,22.50
2022-08-17T09:31:26.832Z,22.60
2022-08-17T09:33:59.210Z,22.60
2022-08-17T09:36:35.195Z,22.70
2022-08-17T09:39:08.718Z,22.70
2022-08-17T09:41:36.543Z,22.80
2022-08-17T09:44:23.084Z,22.90
2022-08-17T09:46:57.025Z,23.00
2022-08-17T09:49:40.379Z,23.10
2022-08-17T09:52:24.589Z,23.30
2022-08-17T09:54:53.593Z,23.50
2022-08-17T09:57:31.962Z,23.70
2022-08-17T10:00:15.779Z,23.80
2022-08-17T10:02:51.582Z,23.90
2022-08-17T10:05:22.002Z,24.00
2022-08-17T10:07:56.193Z,24.00
2022-08-17T10:10:25.603Z,24.00
2022-08-17T10:13:04.674Z,24.00
2022-08-17T10:15:48.872Z,24.10
2022-08-17T10:18:42.911Z,24.10
2022-08-17T10:21:33.778Z,24.10
2022-08-17T10:24:33.355Z,24.10
2022-08-17T10:27:03.052Z,24.20
2022-08-17T10:29:48.448Z,24.30
2022-08-17T10:32:26.299Z,24.50
2022-08-17T10:35:14.697Z,24.60
2022-08-17T10:38:01.188Z,24.80
2022-08-17T10:40:32.480Z,24.80
2022-08-17T10:43:03.262Z,24.80
2022-08-17T10:45:45.114Z,24.80
2022-08-17T10:48:16.872Z,24.90
2022-08-17T10:50:49.555Z,25.00
2022-08-17T10:53:32.322Z,25.10
2022-08-17T10:56:12.001Z,25.20
2022-08-17T10:58:47.174Z,25.40
2022-08-17T11:01:15.256Z,25.60
2022-08-17T11:03:54.980Z,25.80
2022-08-17T11:06:42.022Z,26.00
2022-08-17T11:09:28.083Z,26.10
2022-08-17T11:12:06.695Z,26.30
2022-08-17T11:14:53.784Z,26.20
2022-08-17T11:17:31.835Z,26.20
2022-08-17T11:20:08.754Z,26.30
2022-08-17T11:22:39.169Z,26.40
2022-08-17T11:25:14.763Z,26.60
2022-08-17T11:27:42.906Z,26.60
2022-08-17T11:30:36.544Z,26.50
2022-08-17T11:33:24.417Z,26.50
2022-08-17T11:35:55.331Z,26.50
2022-08-17T11:38:32.832Z,26.40
2022-08-17T11:41:19.394Z,26.40
2022-08-17T11:43:53.451Z,26.20
2022-08-17T11:46:58.888Z,26.20
2022-08-17T11:50:06.839Z,26.10
2022-08-17T11:52:34.968Z,26.00
2022-08-17T11:55:24.197Z,25.90
2022-08-17T11:57:55.628Z,25.80
2022-08-17T12:00:42.191Z,25.70
2022-08-17T12:03:24.944Z,25.70
2022-08-17T12:06:02.639Z,25.60
2022-08-17T12:08:32.816Z,25.60
2022-08-17T12:11:03.494Z,25.60
2022-08-17T12:13:38.444Z,25.60
2022-08-17T12:16:08.318Z,25.70
2022-08-17T12:18:37.564Z,25.60
2022-08-17T12:21:13.418Z,25.90
2022-08-17T12:23:52.388Z,25.90
2022-08-17T12:26:23.014Z,26.00
2022-08-17T12:28:56.028Z,25.50
2022-08-17T12:31:27.257Z,26.10
2022-08-17T12:33:56.053Z,26.00
2022-08-17T12:36:24.854Z,25.70
2022-08-17T12:38:57.265Z,25.90
2022-08-17T12:41:31.849Z,25.90
2022-08-17T12:44:05.331Z,25.90
2022-08-17T12:46:48.071Z,25.90
2022-08-17T12:49:31.281Z,25.80
2022-08-17T12:52:20.757Z,25.80
2022-08-17T12:55:15.733Z,25.80
2022-08-17T12:57:46.351Z,25.80
2022-08-17T13:00:29.014Z,25.60
2022-08-17T13:02:59.837Z,25.40
2022-08-17T13:05:36.069Z,25.20
2022-08-17T13:08:12.870Z,25.00
2022-08-17T13:10:41.199Z,24.80
2022-08-17T13:13:20.783Z,24.70
2022-08-17T13:15:53.508Z,24.50
2022-08-17T13:18:41.631Z,24.30
2022-08-17T13:21:12.253Z,24.20
2022-08-17T13:23:39.811Z,24.20
2022-08-17T13:26:27.560Z,24.20
2022-08-17T13:28:57.403Z,24.20
2022-08-17T13:31:39.410Z,24.20
2022-08-17T13:34:27.022Z,24.10
2022-08-17T13:37:14.500Z,24.30
2022-08-17T13:39:42.751Z,24.40
2022-08-17T13:42:52.731Z,24.50
2022-08-17T13:45:35.344Z,24.60
2022-08-17T13:48:07.309Z,24.60
2022-08-17T13:50:53.363Z,24.60
2022-08-17T13:53:29.487Z,24.60
2022-08-17T13:56:00.757Z,24.70
2022-08-17T13:58:30.834Z,24.70
2022-08-17T14:00:58.558Z,24.80
2022-08-17T14:03:25.981Z,24.80
2022-08-17T14:05:53.528Z,24.80
2022-08-17T14:08:20.988Z,24.90
2022-08-17T14:10:56.420Z,25.00
2022-08-17T14:13:24.122Z,25.00
2022-08-17T14:15:54.891Z,25.00
2022-08-17T14:18:35.733Z,25.00
2022-08-17T14:21:16.938Z,25.00
2022-08-17T14:23:54.274Z,25.00
2022-08-17T14:26:23.331Z,25.00
2022-08-17T14:28:56.652Z,25.00
2022-08-17T14:31:25.054Z,25.00
2022-08-17T14:33:52.974Z,24.90
2022-08-17T14:36:40.673Z,24.90
2022-08-17T14:39:17.033Z,24.50
2022-08-17T14:41:53.927Z,25.30
2022-08-17T14:44:30.708Z,25.90
2022-08-17T14:46:58.756Z,24.80
2022-08-17T14:49:26.681Z,24.80
2022-08-17T14:52:03.344Z,24.80
2022-08-17T14:54:34.006Z,24.70
2022-08-17T14:57:25.843Z,24.70
2022-08-17T14:59:56.778Z,24.20
2022-08-17T15:02:29.840Z,24.70
2022-08-17T15:05:00.055Z,24.80
2022-08-17T15:07:30.946Z,24.80
2022-08-17T15:10:01.388Z,24.80
2022-08-17T15:12:33.679Z,24.80
2022-08-17T15:15:04.380Z,24.80
2022-08-17T15:17:45.254Z,24.80
2022-08-17T15:20:24.863Z,24.70
2022-08-17T15:22:56.070Z,24.60
2022-08-17T15:25:24.483Z,24.60
2022-08-17T15:27:52.355Z,24.60
2022-08-17T15:30:20.159Z,24.60
2022-08-17T15:32:55.239Z,24.60
2022-08-17T15:35:27.235Z,24.60
2022-08-17T15:37:56.025Z,24.70
2022-08-17T15:40:28.006Z,24.70
2022-08-17T15:42:57.743Z,24.70
2022-08-17T15:45:26.532Z,24.70
2022-08-17T15:47:54.503Z,24.60
2022-08-17T15:50:21.943Z,24.60
2022-08-17T15:52:54.644Z,24.60
2022-08-17T15:55:24.081Z,24.60
2022-08-17T15:57:52.335Z,24.60
2022-08-17T16:00:20.189Z,24.50
2022-08-17T16:03:45.260Z,24.40
2022-08-17T16:05:36.280Z,24.40
2022-08-17T16:08:04.882Z,24.20
2022-08-17T16:10:35.758Z,24.00
2022-08-17T16:13:03.999Z,23.80
2022-08-17T16:15:31.957Z,23.50
2022-08-17T16:17:59.512Z,23.40
2022-08-17T16:20:26.903Z,23.20
2022-08-17T16:22:55.159Z,23.10
2022-08-17T16:25:50.317Z,23.00
2022-08-17T16:28:13.685Z,22.80
2022-08-17T16:30:41.378Z,22.80
2022-08-17T16:33:09.973Z,22.70
2022-08-17T16:35:37.588Z,22.70
2022-08-17T16:38:05.043Z,22.70
2022-08-17T16:40:38.147Z,22.70
2022-08-17T16:43:10.725Z,22.70
2022-08-17T16:45:40.356Z,22.70
2022-08-17T16:48:09.252Z,22.70
2022-08-17T16:50:39.014Z,22.70
2022-08-17T16:53:18.329Z,22.70
2022-08-17T16:55:46.523Z,22.70
2022-08-17T16:58:15.632Z,22.60
2022-08-17T17:00:44.137Z,22.60
2022-08-17T17:03:19.239Z,22.60
2022-08-17T17:05:55.222Z,22.60
2022-08-17T17:08:44.752Z,22.60
2022-08-17T17:11:21.629Z,22.50
2022-08-17T17:13:58.447Z,22.50
2022-08-17T17:16:29.039Z,22.40
2022-08-17T17:18:58.092Z,22.40
2022-08-17T17:21:32.193Z,22.40
2022-08-17T17:24:04.352Z,22.30
2022-08-17T17:26:32.071Z,22.30
2022-08-17T17:29:02.653Z,22.30
2022-08-17T17:31:33.688Z,22.10
2022-08-17T17:34:03.788Z,22.10
2022-08-17T17:36:31.355Z,22.10
2022-08-17T17:39:14.359Z,22.00
2022-08-17T17:41:47.209Z,21.90
2022-08-17T17:44:19.775Z,22.00
2022-08-17T17:46:54.757Z,21.90
2022-08-17T17:49:30.388Z,21.80
2022-08-17T17:52:10.311Z,21.80
2022-08-17T17:54:46.455Z,21.80
2022-08-17T17:57:13.956Z,21.70
2022-08-17T17:59:44.570Z,21.70
2022-08-17T18:02:41.711Z,21.70
2022-08-17T18:05:16.661Z,21.60
2022-08-17T18:07:47.963Z,21.60
2022-08-17T18:10:29.416Z,21.60
2022-08-17T18:12:58.065Z,21.60
2022-08-17T18:15:34.884Z,21.60
2022-08-17T18:18:23.226Z,21.60
2022-08-17T18:20:53.941Z,21.60
2022-08-17T18:23:28.008Z,21.50
2022-08-17T18:26:03.184Z,21.50
2022-08-17T18:28:39.829Z,21.50
2022-08-17T18:31:20.224Z,21.50
2022-08-17T18:33:53.014Z,21.40
2022-08-17T18:36:28.734Z,21.40
2022-08-17T18:39:16.156Z,21.40
2022-08-17T18:41:47.990Z,21.90
2022-08-17T18:44:26.292Z,21.30
2022-08-17T18:47:03.213Z,21.30
2022-08-17T18:49:30.684Z,21.30
2022-08-17T18:52:07.262Z,21.20
2022-08-17T18:54:36.164Z,21.20
2022-08-17T18:57:05.617Z,21.20
2022-08-17T18:59:43.554Z,21.10
2022-08-17T19:02:28.238Z,21.10
2022-08-17T19:05:06.896Z,21.10
2022-08-17T19:07:39.461Z,21.00
2022-08-17T19:10:11.277Z,21.00
2022-08-17T19:13:01.589Z,21.00
2022-08-17T19:15:45.222Z,20.90
2022-08-17T19:18:39.022Z,20.80
2022-08-17T19:21:09.975Z,20.80
2022-08-17T19:23:54.016Z,20.80
2022-08-17T19:26:54.647Z,20.80
2022-08-17T19:29:19.476Z,20.80
2022-08-17T19:31:50.258Z,20.80
2022-08-17T19:34:33.073Z,20.80
2022-08-17T19:37:06.932Z,20.80
2022-08-17T19:39:41.008Z,20.80
2022-08-17T19:42:18.095Z,20.80
2022-08-17T19:44:48.783Z,20.80
2022-08-17T19:47:30.494Z,20.70
2022-08-17T19:50:04.026Z,20.80
2022-08-17T19:52:46.721Z,20.80
2022-08-17T19:55:25.288Z,20.80
2022-08-17T19:58:03.317Z,20.80
2022-08-17T20:00:31.805Z,20.90
2022-08-17T20:03:08.174Z,20.80
2022-08-17T20:06:08.631Z,20.80
2022-08-17T20:08:27.175Z,20.70
2022-08-17T20:11:08.874Z,20.80
2022-08-17T20:13:39.692Z,20.70
2022-08-17T20:16:10.023Z,21.30
2022-08-17T20:18:47.609Z,20.70
2022-08-17T20:21:20.563Z,20.70
2022-08-17T20:23:53.670Z,20.60
2022-08-17T20:26:23.676Z,20.50
2022-08-17T20:29:09.765Z,20.50
2022-08-17T20:31:56.061Z,20.40
2022-08-17T20:34:33.560Z,20.40
2022-08-17T20:37:07.740Z,20.30
2022-08-17T20:39:44.047Z,20.70
2022-08-17T20:42:20.968Z,20.20
2022-08-17T20:44:51.990Z,20.20
2022-08-17T20:47:27.384Z,20.20
2022-08-17T20:50:07.021Z,20.20
2022-08-17T20:52:47.616Z,20.10
2022-08-17T20:55:34.094Z,20.10
2022-08-17T20:58:17.247Z,20.10
2022-08-17T21:00:51.867Z,20.10
2022-08-17T21:03:26.697Z,20.00
2022-08-17T21:06:12.583Z,20.00
2022-08-17T21:08:53.218Z,20.10
2022-08-17T21:11:57.335Z,20.10
2022-08-17T21:14:40.224Z,20.10
2022-08-17T21:17:12.530Z,20.10
2022-08-17T21:20:14.310Z,20.10
2022-08-17T21:22:50.855Z,20.20
2022-08-17T21:25:27.092Z,20.20
2022-08-17T21:27:55.037Z,20.20
2022-08-17T21:30:22.434Z,20.20
2022-08-17T21:33:14.023Z,20.20
2022-08-17T21:35:59.829Z,20.20
2022-08-17T21:38:36.903Z,20.20
2022-08-17T21:41:04.510Z,20.20
2022-08-17T21:43:35.354Z,20.20
2022-08-17T21:46:04.326Z,20.10
2022-08-17T21:48:41.523Z,20.10
2022-08-17T21:51:12.286Z,20.10
2022-08-17T21:53:45.059Z,20.10
2022-08-17T21:56:19.894Z,20.00
2022-08-17T21:58:54.764Z,20.00
2022-08-17T22:01:25.995Z,19.90
2022-08-17T22:03:58.700Z,19.90
2022-08-17T22:06:29.161Z,19.80
2022-08-17T22:08:57.507Z,19.80
2022-08-17T22:11:24.834Z,19.80
2022-08-17T22:13:52.573Z,19.80
2022-08-17T22:16:29.784Z,19.50
2022-08-17T22:19:00.470Z,19.80
2022-08-17T22:21:28.684Z,19.80
2022-08-17T22:24:06.722Z,19.80
2022-08-17T22:26:52.858Z,19.80
2022-08-17T22:29:38.804Z,19.90
2022-08-17T22:32:06.594Z,19.90
2022-08-17T22:34:34.469Z,19.90
2022-08-17T22:37:20.556Z,19.90
2022-08-17T22:39:58.994Z,19.90
2022-08-17T22:42:28.546Z,19.90
2022-08-17T22:44:56.029Z,19.90
2022-08-17T22:47:40.937Z,20.00
2022-08-17T22:50:22.488Z,19.90
2022-08-17T22:53:19.503Z,19.90
2022-08-17T22:56:15.725Z,19.90
2022-08-17T22:59:13.056Z,20.00
2022-08-17T23:01:41.543Z,19.90
2022-08-17T23:04:10.484Z,19.90
2022-08-17T23:06:39.527Z,19.90
2022-08-17T23:09:07.441Z,19.90
2022-08-17T23:11:50.226Z,19.90
2022-08-17T23:14:21.745Z,20.00
2022-08-17T23:16:50.488Z,20.00
2022-08-17T23:19:19.924Z,20.00
2022-08-17T23:21:51.073Z,20.00
2022-08-17T23:24:21.900Z,20.00
2022-08-17T23:26:49.246Z,20.10
2022-08-17T23:29:16.682Z,20.00
2022-08-17T23:31:44.899Z,20.00
2022-08-17T23:34:13.295Z,20.00
2022-08-17T23:36:41.009Z,20.00
2022-08-17T23:39:08.483Z,20.10
2022-08-17T23:41:38.565Z,19.90
2022-08-17T23:44:06.502Z,20.00
2022-08-17T23:46:34.850Z,20.20
2022-08-17T23:49:06.657Z,20.00
2022-08-17T23:51:37.264Z,20.00
2022-08-17T23:54:12.821Z,20.00
2022-08-17T23:56:45.584Z,20.00
2022-08-17T23:59:14.433Z,19.90
